createdAt,value
2018-10-12T00:01:39.801Z,42.03
2018-10-12T00:04:08.257Z,42.60
2018-10-12T00:06:36.472Z,46.60
2018-10-12T00:09:05.959Z,43.47
2018-10-12T00:11:34.148Z,46.17
2018-10-12T00:14:02.312Z,48.13
2018-10-12T00:16:30.488Z,50.13
2018-10-12T00:18:58.685Z,51.43
2018-10-12T00:21:26.994Z,51.67
2018-10-12T00:23:55.280Z,52.10
2018-10-12T00:26:23.452Z,53.53
2018-10-12T00:28:51.617Z,50.07
2018-10-12T00:31:19.784Z,51.03
2018-10-12T00:33:48.006Z,51.80
2018-10-12T00:36:16.306Z,51.83
2018-10-12T00:38:44.492Z,51.17
2018-10-12T00:41:12.700Z,49.70
2018-10-12T00:43:40.894Z,50.77
2018-10-12T00:46:09.130Z,50.20
2018-10-12T00:48:37.311Z,50.20
2018-10-12T00:51:05.524Z,50.33
2018-10-12T00:53:33.806Z,50.07
2018-10-12T00:56:01.990Z,49.50
2018-10-12T00:58:32.350Z,50.37
2018-10-12T01:01:00.537Z,50.50
2018-10-12T01:03:28.710Z,51.23
2018-10-12T01:05:56.885Z,51.63
2018-10-12T01:08:25.061Z,51.63
2018-10-12T01:10:53.277Z,53.57
2018-10-12T01:13:21.490Z,52.60
2018-10-12T01:15:49.707Z,50.30
2018-10-12T01:18:17.905Z,51.80
2018-10-12T01:20:46.201Z,52.33
2018-10-12T01:23:14.489Z,53.97
2018-10-12T01:25:42.690Z,53.40
2018-10-12T01:28:10.885Z,54.33
2018-10-12T01:30:39.091Z,54.03
2018-10-12T01:33:07.642Z,54.63
2018-10-12T01:35:35.897Z,54.77
2018-10-12T01:38:04.127Z,52.83
2018-10-12T01:40:32.829Z,52.83
2018-10-12T01:43:01.464Z,54.77
2018-10-12T01:45:29.852Z,54.63
2018-10-12T01:47:58.036Z,57.33
2018-10-12T01:50:26.243Z,56.33
2018-10-12T01:52:54.436Z,58.07
2018-10-12T01:55:22.963Z,57.30
2018-10-12T01:57:51.158Z,55.63
2018-10-12T02:00:19.317Z,58.13
2018-10-12T02:02:47.513Z,59.00
2018-10-12T02:05:15.736Z,61.83
2018-10-12T02:07:43.929Z,62.23
2018-10-12T02:10:12.169Z,61.23
2018-10-12T02:12:40.356Z,60.30
2018-10-12T02:15:08.561Z,64.60
2018-10-12T02:17:36.779Z,60.93
2018-10-12T02:20:05.008Z,63.07
2018-10-12T02:22:33.201Z,60.93
2018-10-12T02:25:01.385Z,63.50
2018-10-12T02:27:29.572Z,62.47
2018-10-12T02:29:57.790Z,61.10
2018-10-12T02:32:25.968Z,62.67
2018-10-12T02:34:54.137Z,61.00
2018-10-12T02:37:22.340Z,61.23
2018-10-12T02:39:50.536Z,63.57
2018-10-12T02:42:18.756Z,63.07
2018-10-12T02:44:47.779Z,63.10
2018-10-12T02:47:15.960Z,62.13
2018-10-12T02:49:44.246Z,64.73
2018-10-12T02:52:12.433Z,62.63
2018-10-12T02:54:40.693Z,60.10
2018-10-12T02:57:08.945Z,59.53
2018-10-12T02:59:37.118Z,60.30
2018-10-12T03:02:05.304Z,57.27
2018-10-12T03:04:33.494Z,57.93
2018-10-12T03:07:01.687Z,59.43
2018-10-12T03:09:29.868Z,56.93
2018-10-12T03:11:58.033Z,57.73
2018-10-12T03:14:26.256Z,57.00
2018-10-12T03:16:54.456Z,57.23
2018-10-12T03:19:22.628Z,56.67
2018-10-12T03:21:50.793Z,56.77
2018-10-12T03:24:19.001Z,54.33
2018-10-12T03:26:47.164Z,55.13
2018-10-12T03:29:15.345Z,53.23
2018-10-12T03:31:43.593Z,53.60
2018-10-12T03:34:11.792Z,52.77
2018-10-12T03:36:40.146Z,52.23
2018-10-12T03:39:08.649Z,52.03
2018-10-12T03:41:36.953Z,51.73
2018-10-12T03:44:05.189Z,48.07
2018-10-12T03:46:33.420Z,48.27
2018-10-12T03:49:01.597Z,47.87
2018-10-12T03:51:29.773Z,49.80
2018-10-12T03:53:58.020Z,46.43
2018-10-12T03:56:26.276Z,48.77
2018-10-12T03:58:54.445Z,48.90
2018-10-12T04:01:22.614Z,49.27
2018-10-12T04:03:50.791Z,48.40
2018-10-12T04:06:18.974Z,49.27
2018-10-12T04:08:47.209Z,49.77
2018-10-12T04:11:15.403Z,49.40
2018-10-12T04:13:43.592Z,46.27
2018-10-12T04:16:11.777Z,45.60
2018-10-12T04:18:39.951Z,46.33
2018-10-12T04:21:08.205Z,44.30
2018-10-12T04:23:36.376Z,45.80
2018-10-12T04:26:04.557Z,44.33
2018-10-12T04:28:32.748Z,44.57
2018-10-12T04:31:00.926Z,45.33
2018-10-12T04:33:29.136Z,46.10
2018-10-12T04:35:57.301Z,46.53
2018-10-12T04:38:25.498Z,44.77
2018-10-12T04:41:00.934Z,42.73
2018-10-12T04:43:29.484Z,41.93
2018-10-12T04:45:57.662Z,45.83
2018-10-12T04:48:25.841Z,44.13
2018-10-12T04:50:54.164Z,46.13
2018-10-12T04:53:22.321Z,45.77
2018-10-12T04:55:50.517Z,46.70
2018-10-12T04:58:18.719Z,45.17
2018-10-12T05:00:47.163Z,45.90
2018-10-12T05:03:15.284Z,43.60
2018-10-12T05:05:43.934Z,47.93
2018-10-12T05:08:12.137Z,48.10
2018-10-12T05:10:40.335Z,48.50
2018-10-12T05:13:08.774Z,48.60
2018-10-12T05:15:36.947Z,51.10
2018-10-12T05:18:05.141Z,48.20
2018-10-12T05:20:33.296Z,49.50
2018-10-12T05:23:01.460Z,50.27
2018-10-12T05:25:29.680Z,48.17
2018-10-12T05:27:58.023Z,46.47
2018-10-12T05:30:26.203Z,47.67
2018-10-12T05:32:54.380Z,47.60
2018-10-12T05:35:22.549Z,47.80
2018-10-12T05:37:50.789Z,48.17
2018-10-12T05:40:18.993Z,46.73
2018-10-12T05:42:47.170Z,45.87
2018-10-12T05:45:15.394Z,45.87
2018-10-12T05:47:43.566Z,44.60
2018-10-12T05:50:11.786Z,46.33
2018-10-12T05:52:40.113Z,43.43
2018-10-12T05:55:08.349Z,44.93
2018-10-12T05:57:38.414Z,42.73
2018-10-12T06:00:06.928Z,43.03
2018-10-12T06:02:35.099Z,42.83
2018-10-12T06:05:03.291Z,41.43
2018-10-12T06:07:31.522Z,41.77
2018-10-12T06:09:59.735Z,41.43
2018-10-12T06:12:27.999Z,43.33
2018-10-12T06:14:56.169Z,42.90
2018-10-12T06:17:24.336Z,42.63
2018-10-12T06:19:52.528Z,42.77
2018-10-12T06:22:20.685Z,42.70
2018-10-12T06:24:48.845Z,42.53
2018-10-12T06:27:17.009Z,43.37
2018-10-12T06:29:45.161Z,41.53
2018-10-12T06:32:13.378Z,42.97
2018-10-12T06:34:41.542Z,42.87
2018-10-12T06:37:09.724Z,41.67
2018-10-12T06:39:37.879Z,41.03
2018-10-12T06:42:06.072Z,41.57
2018-10-12T06:44:34.364Z,37.47
2018-10-12T06:47:02.545Z,39.37
2018-10-12T06:49:30.696Z,37.90
2018-10-12T06:51:58.866Z,36.40
2018-10-12T06:54:27.033Z,37.17
2018-10-12T06:56:55.252Z,37.80
2018-10-12T06:59:23.439Z,37.57
2018-10-12T07:01:51.601Z,37.17
2018-10-12T07:04:19.777Z,37.77
2018-10-12T07:06:47.965Z,36.73
2018-10-12T07:09:16.197Z,37.80
2018-10-12T07:11:44.356Z,38.10
2018-10-12T07:14:12.537Z,38.47
2018-10-12T07:16:40.697Z,37.20
2018-10-12T07:19:08.869Z,36.50
2018-10-12T07:21:37.047Z,35.43
2018-10-12T07:24:05.212Z,35.30
2018-10-12T07:26:33.367Z,36.27
2018-10-12T07:29:01.528Z,35.03
2018-10-12T07:31:29.756Z,35.67
2018-10-12T07:33:57.973Z,35.77
2018-10-12T07:36:26.132Z,35.87
2018-10-12T07:38:54.297Z,32.87
2018-10-12T07:41:22.562Z,33.70
2018-10-12T07:43:50.764Z,32.47
2018-10-12T07:46:19.052Z,32.30
2018-10-12T07:48:47.484Z,31.87
2018-10-12T07:51:15.648Z,32.90
2018-10-12T07:53:43.833Z,33.03
2018-10-12T07:56:12.001Z,31.83
2018-10-12T07:58:40.262Z,31.03
2018-10-12T08:01:08.447Z,32.97
2018-10-12T08:03:36.663Z,34.53
2018-10-12T08:06:05.540Z,33.07
2018-10-12T08:08:33.709Z,33.00
2018-10-12T08:11:01.920Z,32.87
2018-10-12T08:13:30.151Z,30.63
2018-10-12T08:15:58.682Z,30.60
2018-10-12T08:18:27.346Z,31.13
2018-10-12T08:20:55.645Z,30.47
2018-10-12T08:23:23.882Z,30.83
2018-10-12T08:25:52.101Z,30.53
2018-10-12T08:28:20.638Z,30.00
2018-10-12T08:30:48.854Z,29.00
2018-10-12T08:33:17.127Z,30.60
2018-10-12T08:35:45.329Z,29.37
2018-10-12T08:38:13.521Z,27.97
2018-10-12T08:40:41.706Z,27.47
2018-10-12T08:43:09.891Z,25.57
2018-10-12T08:45:38.076Z,28.23
2018-10-12T08:48:06.402Z,26.23
2018-10-12T08:50:34.585Z,25.73
2018-10-12T08:53:02.761Z,26.10
2018-10-12T08:55:30.989Z,25.50
2018-10-12T08:57:59.179Z,26.50
2018-10-12T09:00:27.376Z,24.00
2018-10-12T09:02:55.681Z,24.87
2018-10-12T09:05:23.843Z,24.17
2018-10-12T09:07:52.030Z,23.87
2018-10-12T09:10:20.224Z,24.23
2018-10-12T09:12:48.430Z,23.70
2018-10-12T09:15:16.602Z,24.53
2018-10-12T09:17:44.794Z,24.77
2018-10-12T09:20:12.993Z,23.10
2018-10-12T09:22:41.210Z,23.47
2018-10-12T09:25:09.426Z,23.57
2018-10-12T09:27:37.601Z,23.00
2018-10-12T09:30:05.851Z,23.13
2018-10-12T09:32:34.082Z,23.03
2018-10-12T09:35:02.261Z,22.83
2018-10-12T09:37:30.488Z,21.97
2018-10-12T09:39:58.679Z,23.20
2018-10-12T09:42:26.858Z,21.93
2018-10-12T09:44:55.049Z,22.77
2018-10-12T09:47:23.373Z,22.60
2018-10-12T09:49:51.613Z,22.47
2018-10-12T09:52:19.856Z,23.43
2018-10-12T09:54:48.091Z,23.40
2018-10-12T09:57:21.571Z,22.33
2018-10-12T09:59:49.861Z,22.97
2018-10-12T10:02:23.437Z,21.77
2018-10-12T10:04:51.643Z,21.50
2018-10-12T10:07:19.902Z,21.90
2018-10-12T10:09:48.119Z,21.83
2018-10-12T10:12:16.309Z,21.27
2018-10-12T10:14:44.529Z,23.17
2018-10-12T10:17:12.754Z,21.70
2018-10-12T10:19:41.058Z,22.27
2018-10-12T10:22:09.265Z,21.63
2018-10-12T10:24:37.476Z,21.70
2018-10-12T10:27:05.678Z,21.73
2018-10-12T10:29:33.877Z,23.53
2018-10-12T10:32:02.141Z,21.10
2018-10-12T10:34:30.293Z,20.83
2018-10-12T10:36:58.468Z,21.17
2018-10-12T10:39:26.644Z,20.83
2018-10-12T10:41:54.814Z,21.07
2018-10-12T10:44:23.072Z,21.27
2018-10-12T10:46:51.307Z,22.63
2018-10-12T10:49:19.489Z,20.07
2018-10-12T10:51:47.738Z,21.37
2018-10-12T10:54:15.897Z,21.83
2018-10-12T10:56:44.123Z,20.47
2018-10-12T10:59:12.328Z,20.97
2018-10-12T11:01:40.617Z,19.80
2018-10-12T11:04:09.004Z,20.17
2018-10-12T11:06:37.220Z,19.07
2018-10-12T11:09:06.825Z,19.27
2018-10-12T11:11:35.020Z,19.80
2018-10-12T11:14:05.228Z,20.27
2018-10-12T11:16:33.503Z,19.30
2018-10-12T11:19:01.685Z,19.07
2018-10-12T11:21:29.944Z,17.47
2018-10-12T11:23:58.127Z,18.10
2018-10-12T11:26:26.387Z,19.00
2018-10-12T11:28:54.516Z,17.47
2018-10-12T11:31:22.697Z,18.77
2018-10-12T11:33:50.894Z,17.67
2018-10-12T11:36:19.081Z,17.82
2018-10-12T11:38:47.262Z,18.33
2018-10-12T11:41:15.450Z,17.27
2018-10-12T11:43:43.629Z,18.53
2018-10-12T11:46:11.850Z,17.57
2018-10-12T11:48:40.045Z,17.57
2018-10-12T11:51:08.233Z,17.87
2018-10-12T11:53:36.531Z,17.73
2018-10-12T11:56:04.688Z,17.35
2018-10-12T11:58:32.933Z,18.27
2018-10-12T12:01:01.824Z,18.35
2018-10-12T12:03:29.945Z,17.33
2018-10-12T12:05:58.138Z,17.77
2018-10-12T12:08:26.308Z,16.93
2018-10-12T12:10:54.508Z,17.07
2018-10-12T12:13:22.679Z,18.23
2018-10-12T12:15:50.845Z,17.20
2018-10-12T12:18:19.009Z,17.45
2018-10-12T12:20:47.296Z,18.07
2018-10-12T12:23:15.525Z,16.77
2018-10-12T12:25:43.768Z,17.17
2018-10-12T12:28:11.939Z,15.95
2018-10-12T12:30:40.096Z,16.00
2018-10-12T12:33:08.309Z,15.60
2018-10-12T12:35:36.858Z,15.75
2018-10-12T12:38:04.733Z,15.23
2018-10-12T12:40:32.915Z,14.58
2018-10-12T12:43:01.087Z,15.32
2018-10-12T12:45:29.262Z,15.00
2018-10-12T12:47:57.541Z,15.13
2018-10-12T12:50:25.688Z,15.33
2018-10-12T12:52:53.838Z,16.35
2018-10-12T12:55:22.934Z,16.25
2018-10-12T12:57:51.100Z,15.78
2018-10-12T13:00:19.377Z,16.10
2018-10-12T13:02:47.557Z,14.85
2018-10-12T13:05:15.781Z,13.97
2018-10-12T13:07:43.945Z,15.03
2018-10-12T13:10:12.112Z,15.48
2018-10-12T13:12:40.342Z,13.97
2018-10-12T13:15:08.509Z,14.45
2018-10-12T13:17:36.680Z,14.98
2018-10-12T13:20:04.855Z,15.60
2018-10-12T13:22:33.040Z,16.50
2018-10-12T13:25:01.867Z,15.78
2018-10-12T13:27:30.045Z,16.60
2018-10-12T13:29:58.205Z,16.17
2018-10-12T13:32:26.507Z,16.37
2018-10-12T13:34:54.673Z,16.90
2018-10-12T13:37:22.896Z,15.80
2018-10-12T13:39:51.179Z,15.70
2018-10-12T13:42:19.357Z,16.80
2018-10-12T13:44:47.508Z,15.60
2018-10-12T13:47:15.709Z,15.77
2018-10-12T13:49:43.941Z,15.03
2018-10-12T13:52:12.110Z,17.97
2018-10-12T13:54:40.265Z,16.93
2018-10-12T13:57:08.448Z,16.37
2018-10-12T13:59:36.647Z,17.20
2018-10-12T14:02:04.838Z,17.80
2018-10-12T14:04:33.001Z,17.17
2018-10-12T14:07:01.157Z,18.30
2018-10-12T14:09:29.312Z,17.53
2018-10-12T14:11:57.704Z,17.37
2018-10-12T14:14:26.753Z,17.50
2018-10-12T14:16:54.928Z,18.07
2018-10-12T14:19:23.583Z,16.57
2018-10-12T14:21:51.533Z,17.63
2018-10-12T14:24:19.688Z,17.83
2018-10-12T14:26:48.037Z,18.53
2018-10-12T14:29:16.198Z,17.93
2018-10-12T14:31:44.468Z,18.97
2018-10-12T14:34:12.872Z,18.00
2018-10-12T14:36:41.076Z,17.57
2018-10-12T14:39:09.973Z,18.00
2018-10-12T14:41:38.214Z,17.87
2018-10-12T14:44:06.691Z,17.40
2018-10-12T14:46:35.090Z,18.13
2018-10-12T14:49:03.362Z,18.13
2018-10-12T14:51:31.604Z,18.33
2018-10-12T14:54:00.025Z,17.80
2018-10-12T14:56:28.436Z,18.93
2018-10-12T14:58:56.634Z,18.83
2018-10-12T15:01:24.982Z,19.07
2018-10-12T15:03:53.312Z,19.13
2018-10-12T15:06:21.480Z,19.83
2018-10-12T15:08:49.653Z,20.57
2018-10-12T15:11:18.091Z,20.27
2018-10-12T15:13:46.258Z,20.23
2018-10-12T15:16:14.542Z,22.17
2018-10-12T15:18:43.209Z,21.90
2018-10-12T15:21:11.560Z,22.83
2018-10-12T15:23:39.710Z,21.63
2018-10-12T15:26:08.096Z,22.97
2018-10-12T15:28:36.259Z,22.33
2018-10-12T15:31:04.420Z,23.13
2018-10-12T15:33:32.633Z,21.20
2018-10-12T15:36:00.770Z,20.67
2018-10-12T15:38:29.017Z,19.30
2018-10-12T15:40:57.300Z,19.17
2018-10-12T15:43:25.466Z,19.83
2018-10-12T15:45:53.672Z,20.13
2018-10-12T15:48:22.005Z,18.57
2018-10-12T15:50:50.192Z,19.70
2018-10-12T15:53:18.424Z,20.47
2018-10-12T15:55:46.586Z,19.03
2018-10-12T15:58:14.892Z,19.23
2018-10-12T16:00:43.168Z,21.20
2018-10-12T16:03:11.339Z,21.07
2018-10-12T16:05:39.613Z,21.00
2018-10-12T16:08:07.793Z,21.90
2018-10-12T16:10:36.034Z,23.03
2018-10-12T16:13:04.202Z,22.97
2018-10-12T16:15:32.381Z,23.40
2018-10-12T16:18:00.541Z,23.10
2018-10-12T16:20:28.800Z,23.00
2018-10-12T16:22:57.086Z,23.47
2018-10-12T16:26:02.249Z,22.40
2018-10-12T16:28:30.460Z,24.10
2018-10-12T16:30:59.420Z,27.07
2018-10-12T16:33:27.697Z,24.47
2018-10-12T16:35:57.058Z,26.37
2018-10-12T16:38:25.213Z,24.60
2018-10-12T16:40:53.453Z,25.97
2018-10-12T16:43:21.644Z,25.43
2018-10-12T16:45:50.656Z,24.83
2018-10-12T16:48:18.833Z,24.30
2018-10-12T16:50:47.109Z,25.20
2018-10-12T16:53:15.529Z,26.33
2018-10-12T16:55:43.693Z,25.10
2018-10-12T16:58:13.259Z,23.50
2018-10-12T17:00:41.485Z,29.40
2018-10-12T17:03:09.697Z,31.27
2018-10-12T17:05:37.888Z,41.40
2018-10-12T17:08:06.088Z,48.20
2018-10-12T17:10:34.884Z,45.20
2018-10-12T17:13:03.064Z,39.33
2018-10-12T17:15:31.864Z,31.50
2018-10-12T17:18:00.797Z,30.13
2018-10-12T17:20:29.062Z,28.77
2018-10-12T17:22:57.408Z,27.13
2018-10-12T17:25:25.854Z,27.67
2018-10-12T17:27:54.209Z,31.00
2018-10-12T17:30:23.950Z,28.43
2018-10-12T17:32:52.214Z,29.13
2018-10-12T17:35:20.422Z,28.17
2018-10-12T17:37:48.653Z,26.93
2018-10-12T17:40:16.943Z,28.60
2018-10-12T17:42:48.205Z,33.17
2018-10-12T17:45:16.895Z,34.60
2018-10-12T17:47:47.244Z,34.33
2018-10-12T17:50:16.622Z,33.13
2018-10-12T17:52:44.913Z,33.10
2018-10-12T17:55:13.286Z,31.60
2018-10-12T17:57:41.577Z,31.53
2018-10-12T18:00:10.456Z,30.67
2018-10-12T18:02:38.733Z,28.70
2018-10-12T18:05:07.530Z,28.33
2018-10-12T18:07:35.891Z,27.53
2018-10-12T18:10:04.380Z,28.30
2018-10-12T18:12:32.684Z,27.67
2018-10-12T18:15:00.968Z,27.33
2018-10-12T18:17:29.207Z,27.03
2018-10-12T18:19:57.516Z,25.53
2018-10-12T18:22:25.782Z,26.33
2018-10-12T18:24:54.028Z,26.50
2018-10-12T18:27:22.384Z,26.63
2018-10-12T18:29:50.620Z,27.40
2018-10-12T18:32:18.888Z,26.47
2018-10-12T18:34:47.112Z,27.80
2018-10-12T18:37:15.339Z,27.53
2018-10-12T18:39:43.546Z,26.13
2018-10-12T18:42:11.757Z,28.03
2018-10-12T18:44:40.070Z,26.03
2018-10-12T18:47:08.327Z,26.33
2018-10-12T18:49:36.593Z,27.23
2018-10-12T18:52:04.823Z,26.00
2018-10-12T18:54:33.030Z,27.53
2018-10-12T18:57:01.319Z,28.20
2018-10-12T18:59:29.759Z,28.57
2018-10-12T19:01:57.981Z,27.60
2018-10-12T19:04:26.295Z,27.00
2018-10-12T19:06:54.472Z,26.27
2018-10-12T19:09:22.735Z,25.07
2018-10-12T19:11:50.958Z,25.40
2018-10-12T19:14:19.193Z,25.70
2018-10-12T19:16:47.422Z,25.47
2018-10-12T19:19:15.661Z,25.47
2018-10-12T19:21:43.913Z,26.13
2018-10-12T19:24:12.193Z,26.50
2018-10-12T19:26:40.426Z,26.30
2018-10-12T19:29:08.618Z,26.47
2018-10-12T19:31:36.935Z,25.73
2018-10-12T19:34:05.145Z,25.73
2018-10-12T19:36:33.366Z,25.87
2018-10-12T19:39:01.605Z,25.17
2018-10-12T19:41:29.808Z,25.23
2018-10-12T19:43:58.022Z,24.40
2018-10-12T19:46:26.305Z,26.07
2018-10-12T19:48:54.528Z,29.27
2018-10-12T19:51:22.757Z,27.20
2018-10-12T19:53:50.985Z,26.23
2018-10-12T19:56:19.194Z,24.90
2018-10-12T19:58:47.437Z,26.63
2018-10-12T20:01:15.668Z,24.93
2018-10-12T20:03:43.851Z,24.07
2018-10-12T20:06:12.074Z,23.20
2018-10-12T20:08:40.314Z,27.00
2018-10-12T20:11:08.587Z,24.77
2018-10-12T20:13:36.773Z,26.13
2018-10-12T20:16:04.989Z,28.43
2018-10-12T20:18:33.189Z,28.13
2018-10-12T20:21:01.381Z,29.80
2018-10-12T20:23:29.623Z,30.10
2018-10-12T20:25:57.834Z,29.97
2018-10-12T20:28:26.019Z,30.10
2018-10-12T20:30:54.237Z,29.60
2018-10-12T20:33:22.433Z,28.70
2018-10-12T20:35:50.701Z,28.47
2018-10-12T20:38:18.916Z,27.37
2018-10-12T20:40:47.087Z,27.23
2018-10-12T20:43:15.266Z,27.13
2018-10-12T20:45:43.460Z,27.77
2018-10-12T20:48:11.688Z,26.90
2018-10-12T20:50:40.094Z,26.53
2018-10-12T20:53:08.187Z,27.03
2018-10-12T20:55:36.477Z,26.23
2018-10-12T20:58:04.696Z,25.93
2018-10-12T21:00:33.125Z,28.03
2018-10-12T21:03:01.319Z,26.70
2018-10-12T21:05:29.979Z,26.60
2018-10-12T21:07:58.191Z,26.67
2018-10-12T21:10:26.356Z,27.40
2018-10-12T21:12:54.589Z,27.13
2018-10-12T21:15:23.026Z,27.93
2018-10-12T21:17:51.260Z,30.13
2018-10-12T21:20:19.433Z,30.10
2018-10-12T21:22:47.609Z,29.60
2018-10-12T21:25:15.886Z,27.80
2018-10-12T21:27:44.069Z,28.43
2018-10-12T21:30:12.243Z,29.10
2018-10-12T21:32:40.408Z,26.83
2018-10-12T21:35:08.610Z,29.23
2018-10-12T21:37:36.870Z,28.93
2018-10-12T21:40:05.270Z,31.37
2018-10-12T21:42:33.451Z,30.83
2018-10-12T21:45:01.681Z,30.17
2018-10-12T21:47:29.872Z,29.17
2018-10-12T21:49:58.077Z,29.90
2018-10-12T21:52:26.320Z,29.37
2018-10-12T21:54:54.497Z,29.53
2018-10-12T21:57:22.733Z,29.77
2018-10-12T21:59:50.974Z,28.97
2018-10-12T22:02:19.227Z,29.07
2018-10-12T22:04:47.425Z,30.87
2018-10-12T22:07:15.680Z,28.63
2018-10-12T22:09:43.845Z,28.80
2018-10-12T22:12:12.059Z,27.87
2018-10-12T22:14:40.293Z,29.07
2018-10-12T22:17:08.521Z,28.53
2018-10-12T22:19:36.702Z,30.23
2018-10-12T22:22:04.909Z,28.90
2018-10-12T22:24:33.137Z,29.50
2018-10-12T22:27:01.391Z,31.20
2018-10-12T22:29:29.620Z,31.47
2018-10-12T22:31:57.868Z,31.43
2018-10-12T22:34:26.087Z,30.43
2018-10-12T22:36:54.333Z,31.43
2018-10-12T22:39:22.581Z,30.50
2018-10-12T22:41:50.801Z,31.43
2018-10-12T22:44:19.077Z,33.40
2018-10-12T22:46:47.294Z,33.53
2018-10-12T22:49:15.492Z,33.00
2018-10-12T22:51:43.750Z,33.70
2018-10-12T22:54:12.000Z,34.57
2018-10-12T22:56:40.240Z,35.53
2018-10-12T22:59:08.598Z,33.83
2018-10-12T23:01:36.932Z,34.40
2018-10-12T23:04:05.219Z,34.13
2018-10-12T23:06:33.563Z,35.17
2018-10-12T23:09:01.929Z,36.73
2018-10-12T23:11:30.201Z,38.10
2018-10-12T23:13:58.529Z,35.83
2018-10-12T23:16:26.835Z,36.17
2018-10-12T23:18:55.052Z,36.03
2018-10-12T23:21:24.015Z,36.63
2018-10-12T23:23:52.285Z,35.90
2018-10-12T23:26:20.605Z,36.93
2018-10-12T23:28:48.892Z,37.73
2018-10-12T23:31:17.095Z,37.70
2018-10-12T23:33:50.692Z,38.03
2018-10-12T23:36:18.886Z,37.13
2018-10-12T23:38:47.097Z,36.30
2018-10-12T23:41:15.277Z,35.53
2018-10-12T23:43:43.468Z,35.47
2018-10-12T23:46:11.761Z,36.00
2018-10-12T23:48:40.496Z,36.17
2018-10-12T23:51:08.700Z,36.97
2018-10-12T23:53:37.101Z,34.97
2018-10-12T23:56:05.532Z,37.03
2018-10-12T23:58:33.777Z,37.90
